Last Chance, Iowa
Current Conditions -  °F | °C
As of 2:35 PM on Tuesday 25 Nov 2014 (Local Time) from KCNC Reporting Station
Clear Clear  
Wind Chill: 29°   Ceiling: Unl
Heat Index: 36°   Visibility: 10mi
Dew Point: 10°   Wind: 8mph
Humidity: 35%   Direction: 220°SW
Pressure: 30.08"   Gusts: NA
Location:  40.9417°N, 93.4995°W
Report Text: KCNC 252035Z AUTO 22007KT 10SM CLR 02/M12 A3008 RMK AO2
Loading
Personal Weather Stations






























Interactive Weather Map New forecast layout! Learn more

10-Day Weather Forecast

Advertisements
Track Severe Weather on mobile